createdAt,value
2022-09-12T00:01:45.559Z,4.32
2022-09-12T00:04:51.571Z,3.10
2022-09-12T00:07:57.228Z,5.25
2022-09-12T00:11:07.646Z,4.05
2022-09-12T00:14:18.944Z,3.50
2022-09-12T00:20:29.644Z,6.53
2022-09-12T00:23:35.201Z,7.03
2022-09-12T00:26:40.585Z,6.32
2022-09-12T00:29:46.340Z,4.07
2022-09-12T00:32:51.964Z,3.53
2022-09-12T00:35:57.580Z,3.78
2022-09-12T00:39:04.263Z,4.93
2022-09-12T00:42:12.467Z,11.73
2022-09-12T00:45:28.105Z,5.88
2022-09-12T00:48:44.725Z,3.28
2022-09-12T00:51:59.791Z,4.28
2022-09-12T00:55:13.490Z,4.10
2022-09-12T00:58:44.004Z,3.33
2022-09-12T01:01:52.395Z,5.85
2022-09-12T01:04:57.974Z,3.22
2022-09-12T01:08:05.000Z,3.08
2022-09-12T01:11:13.312Z,3.78
2022-09-12T01:14:20.597Z,5.53
2022-09-12T01:17:37.956Z,3.67
2022-09-12T01:21:07.263Z,3.85
2022-09-12T01:24:42.262Z,5.25
2022-09-12T01:28:24.529Z,6.32
2022-09-12T01:31:41.679Z,2.63
2022-09-12T01:34:55.159Z,4.45
2022-09-12T01:38:14.076Z,3.42
2022-09-12T01:41:59.652Z,4.35
2022-09-12T01:45:12.115Z,3.72
2022-09-12T01:48:27.101Z,2.08
2022-09-12T01:51:40.491Z,5.43
2022-09-12T01:54:56.447Z,3.53
2022-09-12T01:58:15.052Z,6.25
2022-09-12T02:01:25.353Z,4.20
2022-09-12T02:04:36.414Z,3.63
2022-09-12T02:07:53.530Z,2.75
2022-09-12T02:11:08.406Z,4.75
2022-09-12T02:14:24.549Z,4.53
2022-09-12T02:17:32.699Z,6.25
2022-09-12T02:20:49.005Z,2.75
2022-09-12T02:24:00.125Z,6.20
2022-09-12T02:27:26.432Z,8.33
2022-09-12T02:30:40.349Z,6.40
2022-09-12T02:33:50.343Z,6.05
2022-09-12T02:37:13.525Z,10.65
2022-09-12T02:40:19.595Z,8.65
2022-09-12T02:43:25.533Z,8.25
2022-09-12T02:46:41.620Z,4.63
2022-09-12T02:49:47.778Z,9.23
2022-09-12T02:52:55.889Z,3.47
2022-09-12T02:56:01.773Z,3.80
2022-09-12T02:59:09.863Z,3.15
2022-09-12T03:02:44.581Z,3.63
2022-09-12T03:06:00.306Z,3.63
2022-09-12T03:09:21.639Z,3.05
2022-09-12T03:12:45.402Z,3.58
2022-09-12T03:16:23.201Z,5.75
2022-09-12T03:19:57.987Z,3.80
2022-09-12T03:23:11.938Z,3.13
2022-09-12T03:26:26.155Z,4.13
2022-09-12T03:29:32.545Z,6.75
2022-09-12T03:32:50.831Z,3.88
2022-09-12T03:35:56.841Z,9.02
2022-09-12T03:39:02.447Z,4.60
2022-09-12T03:42:07.927Z,5.50
2022-09-12T03:45:13.561Z,11.07
2022-09-12T03:48:19.320Z,6.28
2022-09-12T03:51:24.712Z,4.95
2022-09-12T03:54:30.323Z,6.30
2022-09-12T03:57:35.738Z,4.88
2022-09-12T04:00:43.093Z,5.75
2022-09-12T04:03:52.197Z,6.88
2022-09-12T04:06:57.901Z,5.78
2022-09-12T04:10:04.080Z,4.20
2022-09-12T04:13:09.740Z,3.67
2022-09-12T04:16:16.923Z,7.45
2022-09-12T04:19:23.957Z,6.82
2022-09-12T04:22:30.492Z,3.95
2022-09-12T04:25:35.800Z,10.32
2022-09-12T04:28:41.720Z,7.57
2022-09-12T04:31:46.924Z,5.80
2022-09-12T04:34:52.984Z,9.82
2022-09-12T04:37:58.847Z,6.45
2022-09-12T04:41:14.707Z,8.05
2022-09-12T04:44:19.988Z,9.35
2022-09-12T04:47:25.112Z,5.20
2022-09-12T04:50:30.691Z,6.43
2022-09-12T04:53:38.069Z,5.72
2022-09-12T04:56:47.328Z,6.38
2022-09-12T04:59:52.533Z,6.72
2022-09-12T05:02:58.160Z,10.25
2022-09-12T05:06:04.123Z,8.15
2022-09-12T05:09:14.589Z,9.15
2022-09-12T05:12:20.384Z,10.35
2022-09-12T05:15:26.568Z,8.15
2022-09-12T05:18:36.893Z,11.50
2022-09-12T05:21:42.444Z,6.88
2022-09-12T05:24:50.746Z,3.95
2022-09-12T05:27:57.072Z,10.20
2022-09-12T05:31:05.880Z,13.38
2022-09-12T05:34:12.043Z,6.03
2022-09-12T05:37:17.993Z,7.18
2022-09-12T05:40:23.528Z,10.27
2022-09-12T05:43:28.970Z,6.82
2022-09-12T05:46:40.171Z,10.48
2022-09-12T05:49:48.422Z,6.15
2022-09-12T05:52:55.355Z,7.80
2022-09-12T05:56:13.036Z,5.70
2022-09-12T05:59:21.707Z,7.28
2022-09-12T06:02:26.894Z,7.22
2022-09-12T06:05:33.700Z,6.63
2022-09-12T06:08:40.372Z,6.88
2022-09-12T06:11:47.063Z,6.85
2022-09-12T06:14:52.689Z,5.93
2022-09-12T06:17:58.437Z,6.18
2022-09-12T06:21:09.073Z,6.07
2022-09-12T06:24:14.422Z,6.18
2022-09-12T06:27:20.104Z,9.32
2022-09-12T06:30:25.684Z,6.90
2022-09-12T06:33:33.690Z,6.55
2022-09-12T06:36:43.442Z,5.57
2022-09-12T06:39:49.159Z,5.45
2022-09-12T06:42:54.825Z,6.05
2022-09-12T06:46:13.303Z,13.35
2022-09-12T06:49:18.945Z,8.70
2022-09-12T06:52:24.166Z,6.53
2022-09-12T06:55:30.373Z,8.15
2022-09-12T06:58:36.281Z,7.43
2022-09-12T07:01:42.262Z,8.30
2022-09-12T07:04:50.212Z,7.43
2022-09-12T07:07:56.285Z,8.40
2022-09-12T07:11:20.419Z,9.00
2022-09-12T07:14:26.382Z,10.70
2022-09-12T07:17:32.385Z,9.57
2022-09-12T07:20:38.670Z,7.93
2022-09-12T07:23:45.251Z,6.18
2022-09-12T07:26:50.935Z,7.85
2022-09-12T07:29:56.529Z,6.07
2022-09-12T07:33:02.384Z,5.35
2022-09-12T07:36:12.073Z,5.85
2022-09-12T07:39:17.777Z,8.77
2022-09-12T07:42:23.633Z,6.88
2022-09-12T07:45:30.276Z,4.97
2022-09-12T07:48:36.995Z,6.05
2022-09-12T07:51:42.713Z,4.13
2022-09-12T07:54:48.628Z,8.23
2022-09-12T07:57:54.448Z,4.15
2022-09-12T08:01:14.101Z,7.35
2022-09-12T08:04:19.703Z,7.30
2022-09-12T08:07:25.560Z,8.02
2022-09-12T08:10:31.202Z,4.55
2022-09-12T08:13:38.533Z,10.23
2022-09-12T08:16:44.877Z,5.57
2022-09-12T08:19:50.594Z,5.45
2022-09-12T08:22:56.918Z,6.30
2022-09-12T08:26:06.383Z,4.55
2022-09-12T08:29:12.547Z,6.03
2022-09-12T08:32:18.025Z,5.90
2022-09-12T08:35:23.576Z,5.82
2022-09-12T08:38:30.321Z,9.57
2022-09-12T08:41:49.624Z,5.63
2022-09-12T08:45:19.341Z,14.32
2022-09-12T08:48:24.847Z,3.95
2022-09-12T08:51:34.754Z,4.68
2022-09-12T08:54:40.938Z,6.57
2022-09-12T08:57:47.589Z,5.47
2022-09-12T09:01:14.888Z,6.03
2022-09-12T09:04:57.938Z,5.85
2022-09-12T09:08:31.399Z,2.67
2022-09-12T09:11:43.180Z,2.92
2022-09-12T09:15:02.622Z,3.05
2022-09-12T09:18:23.881Z,2.08
2022-09-12T09:21:32.034Z,4.18
2022-09-12T09:24:43.205Z,2.22
2022-09-12T09:28:02.317Z,1.55
2022-09-12T09:31:17.461Z,1.65
2022-09-12T09:34:29.612Z,2.25
2022-09-12T09:37:43.675Z,2.15
2022-09-12T09:40:52.259Z,3.03
2022-09-12T09:43:59.011Z,1.83
2022-09-12T09:47:05.620Z,4.85
2022-09-12T09:50:17.463Z,3.00
2022-09-12T09:53:57.585Z,1.38
2022-09-12T09:57:04.165Z,3.45
2022-09-12T10:00:27.599Z,0.95
2022-09-12T10:03:41.086Z,3.63
2022-09-12T10:06:47.017Z,0.70
2022-09-12T10:10:15.494Z,3.17
2022-09-12T10:13:31.395Z,8.13
2022-09-12T10:16:53.567Z,1.63
2022-09-12T10:20:19.933Z,1.90
2022-09-12T10:23:41.219Z,1.70
2022-09-12T10:26:56.919Z,2.13
2022-09-12T10:30:15.127Z,3.20
2022-09-12T10:33:21.021Z,1.20
2022-09-12T10:36:36.444Z,2.05
2022-09-12T10:39:50.954Z,2.10
2022-09-12T10:43:00.119Z,0.95
2022-09-12T10:46:27.659Z,2.97
2022-09-12T10:49:40.454Z,7.82
2022-09-12T10:52:46.339Z,1.95
2022-09-12T10:56:10.114Z,7.20
2022-09-12T10:59:56.005Z,6.25
2022-09-12T11:03:37.617Z,1.33
2022-09-12T11:06:53.837Z,2.35
2022-09-12T11:10:23.547Z,3.15
2022-09-12T11:13:56.063Z,5.05
2022-09-12T11:17:16.805Z,2.78
2022-09-12T11:20:25.650Z,4.15
2022-09-12T11:23:42.636Z,4.22
2022-09-12T11:27:04.890Z,4.50
2022-09-12T11:30:11.138Z,1.23
2022-09-12T12:27:46.288Z,1.92
2022-09-12T12:30:54.681Z,2.53
2022-09-12T12:34:05.653Z,1.58
2022-09-12T12:37:19.802Z,2.25
2022-09-12T12:40:27.433Z,2.80
2022-09-12T12:43:32.722Z,4.20
2022-09-12T12:46:39.092Z,4.28
2022-09-12T12:49:56.344Z,6.80
2022-09-12T12:53:06.111Z,2.85
2022-09-12T12:56:28.684Z,3.73
2022-09-12T12:59:34.864Z,2.45
2022-09-12T13:02:50.674Z,5.05
2022-09-12T13:06:02.936Z,7.50
2022-09-12T13:09:39.855Z,7.55
2022-09-12T13:12:48.090Z,3.55
2022-09-12T13:15:54.096Z,3.15
2022-09-12T13:19:08.242Z,2.20
2022-09-12T13:22:13.302Z,12.93
2022-09-12T13:25:20.348Z,3.42
2022-09-12T13:28:26.802Z,4.20
2022-09-12T13:31:33.063Z,4.38
2022-09-12T13:34:56.118Z,1.38
2022-09-12T13:38:37.417Z,6.38
2022-09-12T13:45:22.251Z,8.27
2022-09-12T13:48:28.296Z,5.07
2022-09-12T13:51:34.754Z,5.07
2022-09-12T13:54:41.115Z,3.03
2022-09-12T13:57:55.940Z,6.15
2022-09-12T14:01:10.251Z,5.03
2022-09-12T14:04:41.757Z,3.10
2022-09-12T14:08:05.134Z,2.40
2022-09-12T14:11:12.254Z,2.40
2022-09-12T14:14:34.436Z,1.92
2022-09-12T14:17:40.407Z,3.28
2022-09-12T14:20:47.567Z,2.85
2022-09-12T14:23:55.369Z,3.80
2022-09-12T14:27:01.421Z,3.63
2022-09-12T14:30:28.732Z,3.90
2022-09-12T14:33:56.674Z,3.30
2022-09-12T14:37:07.119Z,8.10
2022-09-12T14:40:24.158Z,3.50
2022-09-12T14:43:29.636Z,6.40
2022-09-12T14:46:39.934Z,5.57
2022-09-12T14:49:46.005Z,2.67
2022-09-12T14:53:21.697Z,1.75
2022-09-12T14:56:45.451Z,8.98
2022-09-12T14:59:51.135Z,4.43
2022-09-12T15:03:23.929Z,3.05
2022-09-12T15:06:38.117Z,5.20
2022-09-12T15:09:47.272Z,4.72
2022-09-12T15:13:12.444Z,2.65
2022-09-12T15:16:17.955Z,8.05
2022-09-12T15:19:23.555Z,2.90
2022-09-12T15:22:28.780Z,1.50
2022-09-12T15:25:34.194Z,2.20
2022-09-12T15:28:40.153Z,3.92
2022-09-12T15:31:47.877Z,2.80
2022-09-12T15:34:55.334Z,2.75
2022-09-12T15:38:00.960Z,3.90
2022-09-12T15:41:19.687Z,3.90
2022-09-12T15:44:24.993Z,4.28
2022-09-12T15:47:30.319Z,3.35
2022-09-12T15:50:36.418Z,3.28
2022-09-12T15:53:42.377Z,2.55
2022-09-12T15:56:47.712Z,5.35
2022-09-12T15:59:53.406Z,1.90
2022-09-12T16:02:58.679Z,3.88
2022-09-12T16:06:04.777Z,4.32
2022-09-12T16:09:14.802Z,2.28
2022-09-12T16:12:21.674Z,2.63
2022-09-12T16:15:26.978Z,2.88
2022-09-12T16:18:32.260Z,2.90
2022-09-12T16:21:38.569Z,3.53
2022-09-12T16:24:44.115Z,4.45
2022-09-12T16:27:50.365Z,4.75
2022-09-12T16:31:00.607Z,3.25
2022-09-12T16:34:06.928Z,3.70
2022-09-12T16:37:12.285Z,2.28
2022-09-12T16:40:19.819Z,5.80
2022-09-12T16:43:25.643Z,5.45
2022-09-12T16:46:31.211Z,1.63
2022-09-12T16:49:36.959Z,4.30
2022-09-12T16:52:42.244Z,3.63
2022-09-12T16:55:51.563Z,4.47
2022-09-12T16:58:57.109Z,8.32
2022-09-12T17:02:03.706Z,13.25
2022-09-12T17:05:10.012Z,13.80
2022-09-12T17:08:15.346Z,7.75
2022-09-12T17:11:27.204Z,3.70
2022-09-12T17:14:32.255Z,6.35
2022-09-12T17:17:37.356Z,6.20
2022-09-12T17:20:42.695Z,10.18
2022-09-12T17:23:48.392Z,10.20
2022-09-12T17:26:55.010Z,2.78
2022-09-12T17:30:00.874Z,7.47
2022-09-12T17:33:06.805Z,5.65
2022-09-12T17:36:18.569Z,7.13
2022-09-12T17:39:24.432Z,4.90
2022-09-12T17:42:30.566Z,11.90
2022-09-12T17:45:36.545Z,7.22
2022-09-12T17:48:42.449Z,6.53
2022-09-12T17:51:48.947Z,10.23
2022-09-12T17:54:54.835Z,11.05
2022-09-12T17:58:02.983Z,12.93
2022-09-12T18:01:34.652Z,12.70
2022-09-12T18:04:42.046Z,8.77
2022-09-12T18:07:47.720Z,10.85
2022-09-12T18:10:53.879Z,6.40
2022-09-12T18:14:00.252Z,8.23
2022-09-12T18:17:08.593Z,10.43
2022-09-12T18:20:14.437Z,16.60
2022-09-12T18:23:20.394Z,13.32
2022-09-12T18:26:28.499Z,9.18
2022-09-12T18:29:34.429Z,15.88
2022-09-12T18:32:39.889Z,15.20
2022-09-12T18:35:45.361Z,10.90
2022-09-12T18:38:52.586Z,13.25
2022-09-12T18:41:58.376Z,14.40
2022-09-12T18:45:04.430Z,22.90
2022-09-12T18:48:09.731Z,21.60
2022-09-12T18:51:18.599Z,15.75
2022-09-12T18:54:24.422Z,16.45
2022-09-12T18:57:35.328Z,15.27
2022-09-12T19:03:48.842Z,21.00
2022-09-12T19:06:54.422Z,14.98
2022-09-12T19:10:00.629Z,16.92
2022-09-12T19:13:05.802Z,22.67
2022-09-12T19:16:14.731Z,10.00
2022-09-12T19:19:21.721Z,18.15
2022-09-12T19:22:28.030Z,13.13
2022-09-12T19:25:33.647Z,16.73
2022-09-12T19:28:39.399Z,7.95
2022-09-12T19:31:46.979Z,10.20
2022-09-12T19:34:52.475Z,14.38
2022-09-12T19:37:58.100Z,13.73
2022-09-12T19:41:07.416Z,8.38
2022-09-12T19:44:13.928Z,11.55
2022-09-12T19:47:19.353Z,12.55
2022-09-12T19:50:25.275Z,9.57
2022-09-12T19:53:32.062Z,10.45
2022-09-12T19:56:37.644Z,14.40
2022-09-12T19:59:43.503Z,9.00
2022-09-12T20:02:53.387Z,7.25
2022-09-12T20:06:26.257Z,7.18
2022-09-12T20:09:31.854Z,12.52
2022-09-12T20:12:37.422Z,7.18
2022-09-12T20:15:43.217Z,11.88
2022-09-12T20:18:49.788Z,8.25
2022-09-12T20:21:55.448Z,7.95
2022-09-12T20:25:01.272Z,7.88
2022-09-12T20:28:07.215Z,11.25
2022-09-12T20:31:16.718Z,10.50
2022-09-12T20:34:22.797Z,5.93
2022-09-12T20:37:30.570Z,7.80
2022-09-12T20:40:35.884Z,5.97
2022-09-12T20:43:41.363Z,8.45
2022-09-12T20:46:47.170Z,5.97
2022-09-12T20:49:53.080Z,4.28
2022-09-12T20:52:59.505Z,6.22
2022-09-12T20:56:07.248Z,8.05
2022-09-12T20:59:13.514Z,10.80
2022-09-12T21:02:19.437Z,15.60
2022-09-12T21:05:25.298Z,9.02
2022-09-12T21:08:32.967Z,4.75
2022-09-12T21:11:38.485Z,6.40
2022-09-12T21:14:43.965Z,6.57
2022-09-12T21:17:49.775Z,8.30
2022-09-12T21:20:56.957Z,7.22
2022-09-12T21:24:03.986Z,10.48
2022-09-12T21:27:09.179Z,4.82
2022-09-12T21:30:15.005Z,4.15
2022-09-12T21:33:21.375Z,8.70
2022-09-12T21:36:27.302Z,8.35
2022-09-12T21:39:32.497Z,10.00
2022-09-12T21:42:38.106Z,5.43
2022-09-12T21:45:43.965Z,5.18
2022-09-12T21:48:49.841Z,5.28
2022-09-12T21:51:55.588Z,4.88
2022-09-12T21:55:01.297Z,5.57
2022-09-12T21:58:07.295Z,6.35
2022-09-12T22:01:13.417Z,8.23
2022-09-12T22:04:19.100Z,4.60
2022-09-12T22:07:25.442Z,8.63
2022-09-12T22:10:31.089Z,5.30
2022-09-12T22:13:39.498Z,5.57
2022-09-12T22:16:45.592Z,12.57
2022-09-12T22:19:51.251Z,4.85
2022-09-12T22:23:15.507Z,6.88
2022-09-12T22:26:21.068Z,5.95
2022-09-12T22:29:27.085Z,6.78
2022-09-12T22:32:36.598Z,4.20
2022-09-12T22:35:42.725Z,9.32
2022-09-12T22:38:48.774Z,5.10
2022-09-12T22:41:54.454Z,4.95
2022-09-12T22:45:00.019Z,4.18
2022-09-12T22:48:08.564Z,4.97
2022-09-12T22:51:14.861Z,6.45
2022-09-12T22:54:20.060Z,5.95
2022-09-12T22:57:26.212Z,11.20
2022-09-12T23:00:32.404Z,4.35
2022-09-12T23:03:38.232Z,4.00
2022-09-12T23:06:43.611Z,4.47
2022-09-12T23:09:49.059Z,5.85
2022-09-12T23:12:55.642Z,3.78
2022-09-12T23:16:03.337Z,3.30
2022-09-12T23:19:09.083Z,4.43
2022-09-12T23:22:14.561Z,11.00
2022-09-12T23:25:23.928Z,6.93
2022-09-12T23:28:30.022Z,3.22
2022-09-12T23:31:35.349Z,5.38
2022-09-12T23:34:40.790Z,4.95
2022-09-12T23:37:47.146Z,4.07
2022-09-12T23:40:52.732Z,5.57
2022-09-12T23:43:58.989Z,7.43
2022-09-12T23:47:04.674Z,5.28
2022-09-12T23:50:10.574Z,3.53
2022-09-12T23:53:18.275Z,6.70
2022-09-12T23:56:23.560Z,9.32
2022-09-12T23:59:31.421Z,6.38
